LFTW/FNI METAR and TAF weather

Enter ICAO airport designator
Station Type Date Time Source
LFTW METAR 2021/09/23 23:00 UTC NOAA

LFTW 232300Z AUTO 00000KT CAVOK 16/14 Q1020


Station Type Date Time Source
LFTW Decoded METAR 2021/09/23 23:00 UTC NOAA

Nimes / Garons, France (LFTW) 43-45N 004-25E 96M
Sep 23, 2021 - 07:00 PM EDT / 2021.09.23 2300 UTC
Wind: Calm:0
Visibility: greater than 7 mile(s):0
Temperature: 60 F (16 C)
Dew Point: 57 F (14 C)
Relative Humidity: 87%
Pressure (altimeter): 30.12 in. Hg (1020 hPa)
ob: LFTW 232300Z AUTO 00000KT CAVOK 16/14 Q1020
cycle: 23

Station Type Date Time Source
LFTW TAF 2021/09/23 19:12 UTC NOAA

TAF TAF LFTW 231903Z 2319/2415 CNL

Example: see airport list